sensor_id;sensor_type;location;lat;lon;timestamp;P1;durP1;ratioP1;P2;durP2;ratioP2
40757;SDS011;26462;47.384;19.218;2023-03-14T00:02:14;6.88;;;3.25;;
40757;SDS011;26462;47.384;19.218;2023-03-14T00:04:41;10.07;;;3.75;;
40757;SDS011;26462;47.384;19.218;2023-03-14T00:07:12;9.93;;;3.90;;
40757;SDS011;26462;47.384;19.218;2023-03-14T00:09:39;9.93;;;3.83;;
40757;SDS011;26462;47.384;19.218;2023-03-14T00:12:07;8.23;;;3.58;;
40757;SDS011;26462;47.384;19.218;2023-03-14T00:14:35;9.88;;;4.22;;
40757;SDS011;26462;47.384;19.218;2023-03-14T00:17:02;7.82;;;3.70;;
40757;SDS011;26462;47.384;19.218;2023-03-14T00:19:29;9.25;;;3.70;;
40757;SDS011;26462;47.384;19.218;2023-03-14T00:21:56;10.50;;;4.35;;
40757;SDS011;26462;47.384;19.218;2023-03-14T00:24:23;8.88;;;3.33;;
40757;SDS011;26462;47.384;19.218;2023-03-14T00:26:50;8.65;;;3.65;;
40757;SDS011;26462;47.384;19.218;2023-03-14T00:29:17;8.90;;;3.17;;
40757;SDS011;26462;47.384;19.218;2023-03-14T00:31:45;11.82;;;3.83;;
40757;SDS011;26462;47.384;19.218;2023-03-14T00:34:12;7.93;;;2.97;;
40757;SDS011;26462;47.384;19.218;2023-03-14T00:36:39;8.02;;;3.63;;
40757;SDS011;26462;47.384;19.218;2023-03-14T00:39:06;9.98;;;3.85;;
40757;SDS011;26462;47.384;19.218;2023-03-14T00:41:33;7.97;;;3.47;;
40757;SDS011;26462;47.384;19.218;2023-03-14T00:44:00;9.95;;;4.03;;
40757;SDS011;26462;47.384;19.218;2023-03-14T00:46:27;9.05;;;3.72;;
40757;SDS011;26462;47.384;19.218;2023-03-14T00:48:54;10.38;;;3.60;;
40757;SDS011;26462;47.384;19.218;2023-03-14T00:51:22;8.40;;;3.85;;
40757;SDS011;26462;47.384;19.218;2023-03-14T00:53:49;7.68;;;3.85;;
40757;SDS011;26462;47.384;19.218;2023-03-14T00:56:18;10.07;;;3.33;;
40757;SDS011;26462;47.384;19.218;2023-03-14T00:58:45;10.20;;;3.60;;
40757;SDS011;26462;47.384;19.218;2023-03-14T01:01:16;8.55;;;4.20;;
40757;SDS011;26462;47.384;19.218;2023-03-14T01:03:45;8.43;;;3.10;;
40757;SDS011;26462;47.384;19.218;2023-03-14T01:06:18;8.07;;;3.75;;
40757;SDS011;26462;47.384;19.218;2023-03-14T01:08:47;9.98;;;4.38;;
40757;SDS011;26462;47.384;19.218;2023-03-14T01:11:24;9.80;;;3.63;;
40757;SDS011;26462;47.384;19.218;2023-03-14T01:13:54;8.77;;;3.90;;
40757;SDS011;26462;47.384;19.218;2023-03-14T01:16:22;7.47;;;3.58;;
40757;SDS011;26462;47.384;19.218;2023-03-14T01:18:51;9.60;;;3.53;;
40757;SDS011;26462;47.384;19.218;2023-03-14T01:21:28;10.60;;;3.95;;
40757;SDS011;26462;47.384;19.218;2023-03-14T01:23:57;7.57;;;3.70;;
40757;SDS011;26462;47.384;19.218;2023-03-14T01:26:26;9.35;;;4.47;;
40757;SDS011;26462;47.384;19.218;2023-03-14T01:28:56;8.20;;;3.78;;
40757;SDS011;26462;47.384;19.218;2023-03-14T01:31:24;11.23;;;4.22;;
40757;SDS011;26462;47.384;19.218;2023-03-14T01:33:52;8.80;;;3.75;;
40757;SDS011;26462;47.384;19.218;2023-03-14T01:36:20;10.23;;;4.03;;
40757;SDS011;26462;47.384;19.218;2023-03-14T01:38:47;6.03;;;3.22;;
40757;SDS011;26462;47.384;19.218;2023-03-14T01:41:17;7.78;;;3.20;;
40757;SDS011;26462;47.384;19.218;2023-03-14T01:43:47;8.25;;;4.10;;
40757;SDS011;26462;47.384;19.218;2023-03-14T01:46:25;10.50;;;3.97;;
40757;SDS011;26462;47.384;19.218;2023-03-14T01:49:04;9.32;;;4.00;;
40757;SDS011;26462;47.384;19.218;2023-03-14T01:51:37;8.85;;;3.47;;
40757;SDS011;26462;47.384;19.218;2023-03-14T01:54:26;9.23;;;3.38;;
40757;SDS011;26462;47.384;19.218;2023-03-14T02:00:04;10.43;;;4.35;;
40757;SDS011;26462;47.384;19.218;2023-03-14T02:02:45;8.57;;;3.47;;
40757;SDS011;26462;47.384;19.218;2023-03-14T02:05:17;10.68;;;3.95;;
40757;SDS011;26462;47.384;19.218;2023-03-14T02:07:54;7.88;;;3.80;;
40757;SDS011;26462;47.384;19.218;2023-03-14T02:10:28;10.38;;;3.85;;
40757;SDS011;26462;47.384;19.218;2023-03-14T02:13:02;8.57;;;3.22;;
40757;SDS011;26462;47.384;19.218;2023-03-14T02:15:57;10.00;;;3.40;;
40757;SDS011;26462;47.384;19.218;2023-03-14T02:18:51;11.32;;;3.92;;
40757;SDS011;26462;47.384;19.218;2023-03-14T02:21:44;12.60;;;4.10;;
40757;SDS011;26462;47.384;19.218;2023-03-14T02:27:54;9.30;;;3.45;;
40757;SDS011;26462;47.384;19.218;2023-03-14T02:30:26;9.07;;;4.03;;
40757;SDS011;26462;47.384;19.218;2023-03-14T02:32:58;7.55;;;4.00;;
40757;SDS011;26462;47.384;19.218;2023-03-14T02:36:03;7.97;;;3.92;;
40757;SDS011;26462;47.384;19.218;2023-03-14T02:38:26;9.80;;;3.75;;
40757;SDS011;26462;47.384;19.218;2023-03-14T02:41:02;8.85;;;3.80;;
40757;SDS011;26462;47.384;19.218;2023-03-14T02:43:33;11.07;;;4.30;;
40757;SDS011;26462;47.384;19.218;2023-03-14T02:46:03;12.63;;;4.25;;
40757;SDS011;26462;47.384;19.218;2023-03-14T02:51:31;8.85;;;3.53;;
40757;SDS011;26462;47.384;19.218;2023-03-14T02:53:59;12.88;;;3.80;;
40757;SDS011;26462;47.384;19.218;2023-03-14T02:56:26;11.98;;;4.38;;
40757;SDS011;26462;47.384;19.218;2023-03-14T02:58:53;8.23;;;4.13;;
40757;SDS011;26462;47.384;19.218;2023-03-14T03:01:46;9.30;;;3.47;;
40757;SDS011;26462;47.384;19.218;2023-03-14T03:04:13;9.75;;;3.25;;
40757;SDS011;26462;47.384;19.218;2023-03-14T03:06:44;7.90;;;4.20;;
40757;SDS011;26462;47.384;19.218;2023-03-14T03:09:13;6.88;;;2.85;;
40757;SDS011;26462;47.384;19.218;2023-03-14T03:11:40;9.23;;;3.67;;
40757;SDS011;26462;47.384;19.218;2023-03-14T03:14:10;9.50;;;3.65;;
40757;SDS011;26462;47.384;19.218;2023-03-14T03:16:37;8.00;;;3.38;;
40757;SDS011;26462;47.384;19.218;2023-03-14T03:19:04;9.48;;;3.50;;
40757;SDS011;26462;47.384;19.218;2023-03-14T03:21:31;9.77;;;3.85;;
40757;SDS011;26462;47.384;19.218;2023-03-14T03:23:58;10.68;;;4.10;;
40757;SDS011;26462;47.384;19.218;2023-03-14T03:26:25;11.18;;;3.58;;
40757;SDS011;26462;47.384;19.218;2023-03-14T03:28:53;9.63;;;3.42;;
40757;SDS011;26462;47.384;19.218;2023-03-14T03:31:22;10.48;;;3.30;;
40757;SDS011;26462;47.384;19.218;2023-03-14T03:33:49;7.85;;;3.58;;
40757;SDS011;26462;47.384;19.218;2023-03-14T03:36:19;7.25;;;3.38;;
40757;SDS011;26462;47.384;19.218;2023-03-14T03:41:17;8.50;;;2.72;;
40757;SDS011;26462;47.384;19.218;2023-03-14T03:43:49;4.93;;;2.42;;
40757;SDS011;26462;47.384;19.218;2023-03-14T03:46:24;8.57;;;3.38;;
40757;SDS011;26462;47.384;19.218;2023-03-14T03:48:55;6.18;;;2.70;;
40757;SDS011;26462;47.384;19.218;2023-03-14T03:51:24;6.93;;;3.17;;
40757;SDS011;26462;47.384;19.218;2023-03-14T03:53:51;10.10;;;4.05;;
40757;SDS011;26462;47.384;19.218;2023-03-14T03:56:26;10.10;;;3.03;;
40757;SDS011;26462;47.384;19.218;2023-03-14T03:58:53;8.60;;;4.03;;
40757;SDS011;26462;47.384;19.218;2023-03-14T04:01:20;12.63;;;3.33;;
40757;SDS011;26462;47.384;19.218;2023-03-14T04:03:50;8.57;;;3.63;;
40757;SDS011;26462;47.384;19.218;2023-03-14T04:06:18;7.45;;;3.00;;
40757;SDS011;26462;47.384;19.218;2023-03-14T04:08:48;8.75;;;3.47;;
40757;SDS011;26462;47.384;19.218;2023-03-14T04:11:29;9.68;;;3.67;;
40757;SDS011;26462;47.384;19.218;2023-03-14T04:14:11;8.68;;;3.38;;
40757;SDS011;26462;47.384;19.218;2023-03-14T04:16:38;5.95;;;2.83;;
40757;SDS011;26462;47.384;19.218;2023-03-14T04:19:13;5.43;;;2.53;;
40757;SDS011;26462;47.384;19.218;2023-03-14T04:21:45;8.50;;;3.28;;
40757;SDS011;26462;47.384;19.218;2023-03-14T04:24:16;6.28;;;2.88;;
40757;SDS011;26462;47.384;19.218;2023-03-14T04:26:47;7.35;;;2.83;;
40757;SDS011;26462;47.384;19.218;2023-03-14T04:29:14;6.28;;;3.10;;
40757;SDS011;26462;47.384;19.218;2023-03-14T04:31:43;7.38;;;2.50;;
40757;SDS011;26462;47.384;19.218;2023-03-14T04:34:11;9.27;;;2.90;;
40757;SDS011;26462;47.384;19.218;2023-03-14T04:36:51;4.65;;;1.75;;
40757;SDS011;26462;47.384;19.218;2023-03-14T04:39:24;7.60;;;2.53;;
40757;SDS011;26462;47.384;19.218;2023-03-14T04:41:59;9.88;;;2.83;;
40757;SDS011;26462;47.384;19.218;2023-03-14T04:44:27;6.90;;;2.47;;
40757;SDS011;26462;47.384;19.218;2023-03-14T04:46:54;7.50;;;2.50;;
40757;SDS011;26462;47.384;19.218;2023-03-14T04:49:21;5.65;;;2.55;;
40757;SDS011;26462;47.384;19.218;2023-03-14T04:51:52;8.25;;;2.92;;
40757;SDS011;26462;47.384;19.218;2023-03-14T04:54:21;7.65;;;3.05;;
40757;SDS011;26462;47.384;19.218;2023-03-14T04:56:53;7.00;;;2.78;;
40757;SDS011;26462;47.384;19.218;2023-03-14T04:59:23;9.32;;;3.25;;
40757;SDS011;26462;47.384;19.218;2023-03-14T05:01:53;10.55;;;2.72;;
40757;SDS011;26462;47.384;19.218;2023-03-14T05:04:44;6.32;;;2.33;;
40757;SDS011;26462;47.384;19.218;2023-03-14T05:07:33;8.15;;;3.35;;
40757;SDS011;26462;47.384;19.218;2023-03-14T05:10:20;6.75;;;2.85;;
40757;SDS011;26462;47.384;19.218;2023-03-14T05:13:23;6.07;;;1.97;;
40757;SDS011;26462;47.384;19.218;2023-03-14T05:16:14;6.38;;;2.78;;
40757;SDS011;26462;47.384;19.218;2023-03-14T05:19:04;7.40;;;3.33;;
40757;SDS011;26462;47.384;19.218;2023-03-14T05:21:49;7.10;;;2.97;;
40757;SDS011;26462;47.384;19.218;2023-03-14T05:24:31;7.53;;;2.87;;
40757;SDS011;26462;47.384;19.218;2023-03-14T05:27:01;8.70;;;3.08;;
40757;SDS011;26462;47.384;19.218;2023-03-14T05:29:55;6.32;;;2.20;;
40757;SDS011;26462;47.384;19.218;2023-03-14T05:32:45;6.90;;;2.75;;
40757;SDS011;26462;47.384;19.218;2023-03-14T05:35:21;5.47;;;2.28;;
40757;SDS011;26462;47.384;19.218;2023-03-14T05:38:05;7.32;;;2.45;;
40757;SDS011;26462;47.384;19.218;2023-03-14T05:40:55;10.02;;;2.55;;
40757;SDS011;26462;47.384;19.218;2023-03-14T05:43:35;6.03;;;2.10;;
40757;SDS011;26462;47.384;19.218;2023-03-14T05:46:32;7.70;;;2.10;;
40757;SDS011;26462;47.384;19.218;2023-03-14T05:49:24;7.68;;;3.65;;
40757;SDS011;26462;47.384;19.218;2023-03-14T05:52:09;5.90;;;2.70;;
40757;SDS011;26462;47.384;19.218;2023-03-14T05:54:45;7.88;;;3.40;;
40757;SDS011;26462;47.384;19.218;2023-03-14T05:57:47;6.05;;;2.75;;
40757;SDS011;26462;47.384;19.218;2023-03-14T06:00:40;8.40;;;2.65;;
40757;SDS011;26462;47.384;19.218;2023-03-14T06:03:19;8.00;;;2.05;;
40757;SDS011;26462;47.384;19.218;2023-03-14T06:05:49;11.00;;;2.28;;
40757;SDS011;26462;47.384;19.218;2023-03-14T06:08:19;6.83;;;3.40;;
40757;SDS011;26462;47.384;19.218;2023-03-14T06:10:46;7.55;;;2.95;;
40757;SDS011;26462;47.384;19.218;2023-03-14T06:13:13;9.10;;;3.28;;
40757;SDS011;26462;47.384;19.218;2023-03-14T06:15:42;7.28;;;3.08;;
40757;SDS011;26462;47.384;19.218;2023-03-14T06:18:11;3.92;;;0.93;;
40757;SDS011;26462;47.384;19.218;2023-03-14T06:20:39;6.45;;;3.05;;
40757;SDS011;26462;47.384;19.218;2023-03-14T06:23:09;9.05;;;2.53;;
40757;SDS011;26462;47.384;19.218;2023-03-14T06:25:37;5.40;;;2.15;;
40757;SDS011;26462;47.384;19.218;2023-03-14T06:28:04;5.30;;;2.42;;
40757;SDS011;26462;47.384;19.218;2023-03-14T06:30:31;6.47;;;2.30;;
40757;SDS011;26462;47.384;19.218;2023-03-14T06:32:59;3.53;;;1.58;;
40757;SDS011;26462;47.384;19.218;2023-03-14T06:35:26;13.13;;;3.22;;
40757;SDS011;26462;47.384;19.218;2023-03-14T06:37:54;7.47;;;2.97;;
40757;SDS011;26462;47.384;19.218;2023-03-14T06:40:21;7.70;;;2.67;;
40757;SDS011;26462;47.384;19.218;2023-03-14T06:43:07;6.78;;;2.30;;
40757;SDS011;26462;47.384;19.218;2023-03-14T06:45:35;6.43;;;2.15;;
40757;SDS011;26462;47.384;19.218;2023-03-14T06:48:03;8.30;;;2.53;;
40757;SDS011;26462;47.384;19.218;2023-03-14T06:50:37;7.68;;;2.63;;
40757;SDS011;26462;47.384;19.218;2023-03-14T06:53:04;6.22;;;2.53;;
40757;SDS011;26462;47.384;19.218;2023-03-14T06:55:34;10.10;;;2.65;;
40757;SDS011;26462;47.384;19.218;2023-03-14T06:58:01;9.93;;;2.58;;
40757;SDS011;26462;47.384;19.218;2023-03-14T07:00:31;8.00;;;3.38;;
40757;SDS011;26462;47.384;19.218;2023-03-14T07:02:58;9.38;;;3.17;;
40757;SDS011;26462;47.384;19.218;2023-03-14T07:05:32;6.97;;;3.33;;
40757;SDS011;26462;47.384;19.218;2023-03-14T07:07:59;8.35;;;2.35;;
40757;SDS011;26462;47.384;19.218;2023-03-14T07:10:27;8.93;;;3.00;;
40757;SDS011;26462;47.384;19.218;2023-03-14T07:12:54;4.78;;;2.00;;
40757;SDS011;26462;47.384;19.218;2023-03-14T07:15:25;7.25;;;2.63;;
40757;SDS011;26462;47.384;19.218;2023-03-14T07:17:56;6.07;;;2.35;;
40757;SDS011;26462;47.384;19.218;2023-03-14T07:20:24;7.97;;;2.72;;
40757;SDS011;26462;47.384;19.218;2023-03-14T07:22:52;6.13;;;2.33;;
40757;SDS011;26462;47.384;19.218;2023-03-14T07:25:31;5.38;;;1.92;;
40757;SDS011;26462;47.384;19.218;2023-03-14T07:28:00;5.88;;;2.53;;
40757;SDS011;26462;47.384;19.218;2023-03-14T07:30:28;3.83;;;1.70;;
40757;SDS011;26462;47.384;19.218;2023-03-14T07:32:57;6.07;;;1.98;;
40757;SDS011;26462;47.384;19.218;2023-03-14T07:35:25;6.55;;;2.55;;
40757;SDS011;26462;47.384;19.218;2023-03-14T07:37:52;5.00;;;2.50;;
40757;SDS011;26462;47.384;19.218;2023-03-14T07:40:27;5.05;;;2.15;;
40757;SDS011;26462;47.384;19.218;2023-03-14T07:42:58;7.22;;;2.50;;
40757;SDS011;26462;47.384;19.218;2023-03-14T07:45:35;8.82;;;2.63;;
40757;SDS011;26462;47.384;19.218;2023-03-14T07:50:35;7.07;;;1.85;;
40757;SDS011;26462;47.384;19.218;2023-03-14T07:53:02;6.35;;;2.35;;
40757;SDS011;26462;47.384;19.218;2023-03-14T07:55:32;6.00;;;2.45;;
40757;SDS011;26462;47.384;19.218;2023-03-14T07:58:02;6.95;;;2.28;;
40757;SDS011;26462;47.384;19.218;2023-03-14T08:00:30;7.45;;;2.25;;
40757;SDS011;26462;47.384;19.218;2023-03-14T08:02:57;12.90;;;2.13;;
40757;SDS011;26462;47.384;19.218;2023-03-14T08:05:24;6.72;;;2.85;;
40757;SDS011;26462;47.384;19.218;2023-03-14T08:07:51;5.45;;;2.10;;
40757;SDS011;26462;47.384;19.218;2023-03-14T08:10:18;8.80;;;2.90;;
40757;SDS011;26462;47.384;19.218;2023-03-14T08:12:49;5.03;;;2.03;;
40757;SDS011;26462;47.384;19.218;2023-03-14T08:15:17;10.20;;;3.03;;
40757;SDS011;26462;47.384;19.218;2023-03-14T08:17:44;8.10;;;1.90;;
40757;SDS011;26462;47.384;19.218;2023-03-14T08:20:12;7.35;;;2.38;;
40757;SDS011;26462;47.384;19.218;2023-03-14T08:22:39;7.45;;;2.42;;
40757;SDS011;26462;47.384;19.218;2023-03-14T08:25:07;6.60;;;2.40;;
40757;SDS011;26462;47.384;19.218;2023-03-14T08:27:35;7.30;;;2.60;;
40757;SDS011;26462;47.384;19.218;2023-03-14T08:30:06;5.25;;;1.58;;
40757;SDS011;26462;47.384;19.218;2023-03-14T08:32:35;7.57;;;1.52;;
40757;SDS011;26462;47.384;19.218;2023-03-14T08:35:03;5.85;;;1.67;;
40757;SDS011;26462;47.384;19.218;2023-03-14T08:37:32;5.18;;;2.00;;
40757;SDS011;26462;47.384;19.218;2023-03-14T08:39:59;5.18;;;2.17;;
40757;SDS011;26462;47.384;19.218;2023-03-14T08:42:27;4.47;;;1.20;;
40757;SDS011;26462;47.384;19.218;2023-03-14T08:44:54;4.50;;;1.60;;
40757;SDS011;26462;47.384;19.218;2023-03-14T08:47:21;5.20;;;2.00;;
40757;SDS011;26462;47.384;19.218;2023-03-14T08:49:51;3.97;;;1.27;;
40757;SDS011;26462;47.384;19.218;2023-03-14T08:52:18;5.25;;;1.35;;
40757;SDS011;26462;47.384;19.218;2023-03-14T08:54:45;4.70;;;1.75;;
40757;SDS011;26462;47.384;19.218;2023-03-14T08:57:13;4.70;;;1.60;;
40757;SDS011;26462;47.384;19.218;2023-03-14T08:59:40;4.82;;;1.58;;
40757;SDS011;26462;47.384;19.218;2023-03-14T09:02:09;5.20;;;1.52;;
40757;SDS011;26462;47.384;19.218;2023-03-14T09:04:39;3.10;;;1.65;;
40757;SDS011;26462;47.384;19.218;2023-03-14T09:07:06;4.25;;;1.48;;
40757;SDS011;26462;47.384;19.218;2023-03-14T09:09:33;5.47;;;1.50;;
40757;SDS011;26462;47.384;19.218;2023-03-14T09:12:01;4.03;;;1.35;;
40757;SDS011;26462;47.384;19.218;2023-03-14T09:14:28;3.58;;;1.35;;
40757;SDS011;26462;47.384;19.218;2023-03-14T09:16:55;4.57;;;1.42;;
40757;SDS011;26462;47.384;19.218;2023-03-14T09:19:22;7.57;;;1.80;;
40757;SDS011;26462;47.384;19.218;2023-03-14T09:21:49;3.75;;;1.60;;
40757;SDS011;26462;47.384;19.218;2023-03-14T09:24:17;4.95;;;2.22;;
40757;SDS011;26462;47.384;19.218;2023-03-14T09:26:44;5.20;;;1.50;;
40757;SDS011;26462;47.384;19.218;2023-03-14T09:29:12;4.15;;;1.27;;
40757;SDS011;26462;47.384;19.218;2023-03-14T09:31:39;6.05;;;1.38;;
40757;SDS011;26462;47.384;19.218;2023-03-14T09:34:07;6.72;;;1.27;;
40757;SDS011;26462;47.384;19.218;2023-03-14T09:36:34;8.50;;;1.27;;
40757;SDS011;26462;47.384;19.218;2023-03-14T09:39:01;5.90;;;1.20;;
40757;SDS011;26462;47.384;19.218;2023-03-14T09:41:29;4.68;;;1.15;;
40757;SDS011;26462;47.384;19.218;2023-03-14T09:44:02;6.38;;;1.30;;
40757;SDS011;26462;47.384;19.218;2023-03-14T09:46:35;6.40;;;1.58;;
40757;SDS011;26462;47.384;19.218;2023-03-14T09:49:10;4.32;;;1.25;;
40757;SDS011;26462;47.384;19.218;2023-03-14T09:51:40;8.85;;;1.63;;
40757;SDS011;26462;47.384;19.218;2023-03-14T09:54:17;4.70;;;1.30;;
40757;SDS011;26462;47.384;19.218;2023-03-14T09:57:11;5.93;;;1.40;;
40757;SDS011;26462;47.384;19.218;2023-03-14T09:59:42;3.47;;;1.52;;
40757;SDS011;26462;47.384;19.218;2023-03-14T10:02:13;4.72;;;1.20;;
40757;SDS011;26462;47.384;19.218;2023-03-14T10:04:52;6.47;;;1.65;;
40757;SDS011;26462;47.384;19.218;2023-03-14T10:07:30;6.05;;;1.25;;
40757;SDS011;26462;47.384;19.218;2023-03-14T10:09:58;3.45;;;0.88;;
40757;SDS011;26462;47.384;19.218;2023-03-14T10:12:33;3.70;;;0.90;;
40757;SDS011;26462;47.384;19.218;2023-03-14T10:15:06;3.38;;;0.88;;
40757;SDS011;26462;47.384;19.218;2023-03-14T10:17:39;5.40;;;1.00;;
40757;SDS011;26462;47.384;19.218;2023-03-14T10:20:27;5.28;;;1.10;;
40757;SDS011;26462;47.384;19.218;2023-03-14T10:23:04;3.23;;;0.70;;
40757;SDS011;26462;47.384;19.218;2023-03-14T10:25:33;4.43;;;0.40;;
40757;SDS011;26462;47.384;19.218;2023-03-14T10:28:03;4.70;;;1.13;;
40757;SDS011;26462;47.384;19.218;2023-03-14T10:30:43;4.32;;;1.20;;
40757;SDS011;26462;47.384;19.218;2023-03-14T10:33:34;6.55;;;1.90;;
40757;SDS011;26462;47.384;19.218;2023-03-14T10:36:02;4.03;;;1.02;;
40757;SDS011;26462;47.384;19.218;2023-03-14T10:38:31;5.00;;;1.80;;
40757;SDS011;26462;47.384;19.218;2023-03-14T10:41:04;4.95;;;1.40;;
40757;SDS011;26462;47.384;19.218;2023-03-14T10:43:53;5.30;;;1.80;;
40757;SDS011;26462;47.384;19.218;2023-03-14T10:46:23;6.70;;;1.65;;
40757;SDS011;26462;47.384;19.218;2023-03-14T10:49:23;8.60;;;1.88;;
40757;SDS011;26462;47.384;19.218;2023-03-14T10:52:00;6.75;;;2.15;;
40757;SDS011;26462;47.384;19.218;2023-03-14T10:55:02;5.05;;;1.80;;
40757;SDS011;26462;47.384;19.218;2023-03-14T10:57:40;4.47;;;1.33;;
40757;SDS011;26462;47.384;19.218;2023-03-14T11:10:46;5.45;;;1.48;;
40757;SDS011;26462;47.384;19.218;2023-03-14T11:21:36;5.57;;;1.27;;
40757;SDS011;26462;47.384;19.218;2023-03-14T11:24:14;5.30;;;0.98;;
40757;SDS011;26462;47.384;19.218;2023-03-14T11:26:48;7.90;;;0.88;;
40757;SDS011;26462;47.384;19.218;2023-03-14T11:32:24;3.58;;;0.30;;
40757;SDS011;26462;47.384;19.218;2023-03-14T11:35:03;6.65;;;0.50;;
40757;SDS011;26462;47.384;19.218;2023-03-14T11:40:37;6.32;;;0.38;;
40757;SDS011;26462;47.384;19.218;2023-03-14T11:43:13;4.55;;;0.57;;
40757;SDS011;26462;47.384;19.218;2023-03-14T11:45:46;2.00;;;0.60;;
40757;SDS011;26462;47.384;19.218;2023-03-14T11:48:34;6.32;;;0.85;;
40757;SDS011;26462;47.384;19.218;2023-03-14T11:51:17;4.30;;;0.70;;
40757;SDS011;26462;47.384;19.218;2023-03-14T11:56:32;5.75;;;0.40;;
40757;SDS011;26462;47.384;19.218;2023-03-14T11:59:19;4.47;;;0.30;;
40757;SDS011;26462;47.384;19.218;2023-03-14T12:01:57;3.95;;;0.30;;
40757;SDS011;26462;47.384;19.218;2023-03-14T12:07:17;7.22;;;0.40;;
40757;SDS011;26462;47.384;19.218;2023-03-14T12:09:53;7.72;;;0.47;;
40757;SDS011;26462;47.384;19.218;2023-03-14T12:12:22;5.13;;;0.40;;
40757;SDS011;26462;47.384;19.218;2023-03-14T12:14:53;3.20;;;0.20;;
40757;SDS011;26462;47.384;19.218;2023-03-14T12:17:27;5.35;;;0.50;;
40757;SDS011;26462;47.384;19.218;2023-03-14T12:22:48;5.65;;;0.50;;
40757;SDS011;26462;47.384;19.218;2023-03-14T12:25:23;11.13;;;0.47;;
40757;SDS011;26462;47.384;19.218;2023-03-14T12:30:30;2.40;;;0.20;;
40757;SDS011;26462;47.384;19.218;2023-03-14T12:35:44;5.35;;;0.40;;
40757;SDS011;26462;47.384;19.218;2023-03-14T12:40:58;4.20;;;0.40;;
40757;SDS011;26462;47.384;19.218;2023-03-14T12:43:34;3.03;;;0.30;;
40757;SDS011;26462;47.384;19.218;2023-03-14T12:48:45;3.33;;;0.43;;
40757;SDS011;26462;47.384;19.218;2023-03-14T12:51:20;4.43;;;0.30;;
40757;SDS011;26462;47.384;19.218;2023-03-14T12:59:48;4.25;;;0.30;;
40757;SDS011;26462;47.384;19.218;2023-03-14T13:15:24;0.82;;;0.20;;
40757;SDS011;26462;47.384;19.218;2023-03-14T13:17:58;5.95;;;0.32;;
40757;SDS011;26462;47.384;19.218;2023-03-14T13:20:59;5.97;;;1.52;;
40757;SDS011;26462;47.384;19.218;2023-03-14T13:23:29;2.30;;;0.55;;
40757;SDS011;26462;47.384;19.218;2023-03-14T13:25:59;1.42;;;0.55;;
40757;SDS011;26462;47.384;19.218;2023-03-14T13:28:28;3.58;;;0.90;;
40757;SDS011;26462;47.384;19.218;2023-03-14T13:30:58;4.93;;;2.05;;
40757;SDS011;26462;47.384;19.218;2023-03-14T13:33:29;3.88;;;0.95;;
40757;SDS011;26462;47.384;19.218;2023-03-14T13:38:32;4.05;;;1.27;;
40757;SDS011;26462;47.384;19.218;2023-03-14T13:41:06;2.65;;;0.88;;
40757;SDS011;26462;47.384;19.218;2023-03-14T13:43:40;4.28;;;0.80;;
40757;SDS011;26462;47.384;19.218;2023-03-14T13:48:50;4.88;;;1.92;;
40757;SDS011;26462;47.384;19.218;2023-03-14T13:51:31;5.80;;;1.40;;
40757;SDS011;26462;47.384;19.218;2023-03-14T13:53:59;5.00;;;0.70;;
40757;SDS011;26462;47.384;19.218;2023-03-14T13:56:32;3.33;;;0.70;;
40757;SDS011;26462;47.384;19.218;2023-03-14T13:59:00;2.80;;;0.75;;
40757;SDS011;26462;47.384;19.218;2023-03-14T14:01:31;6.80;;;0.73;;
40757;SDS011;26462;47.384;19.218;2023-03-14T14:04:05;6.75;;;0.90;;
40757;SDS011;26462;47.384;19.218;2023-03-14T14:06:39;3.72;;;0.75;;
40757;SDS011;26462;47.384;19.218;2023-03-14T14:09:16;3.40;;;1.20;;
40757;SDS011;26462;47.384;19.218;2023-03-14T14:11:51;3.33;;;0.77;;
40757;SDS011;26462;47.384;19.218;2023-03-14T14:14:42;3.67;;;1.08;;
40757;SDS011;26462;47.384;19.218;2023-03-14T14:17:15;5.05;;;1.50;;
40757;SDS011;26462;47.384;19.218;2023-03-14T14:19:48;2.75;;;1.00;;
40757;SDS011;26462;47.384;19.218;2023-03-14T14:22:17;3.97;;;1.02;;
40757;SDS011;26462;47.384;19.218;2023-03-14T14:24:45;3.63;;;1.10;;
40757;SDS011;26462;47.384;19.218;2023-03-14T14:27:17;4.43;;;1.02;;
40757;SDS011;26462;47.384;19.218;2023-03-14T14:30:00;3.22;;;0.90;;
40757;SDS011;26462;47.384;19.218;2023-03-14T14:32:34;3.70;;;1.02;;
40757;SDS011;26462;47.384;19.218;2023-03-14T14:35:03;4.47;;;1.00;;
40757;SDS011;26462;47.384;19.218;2023-03-14T14:37:33;7.88;;;1.23;;
40757;SDS011;26462;47.384;19.218;2023-03-14T14:40:09;5.88;;;1.23;;
40757;SDS011;26462;47.384;19.218;2023-03-14T14:42:43;4.05;;;1.15;;
40757;SDS011;26462;47.384;19.218;2023-03-14T14:45:15;3.25;;;0.90;;
40757;SDS011;26462;47.384;19.218;2023-03-14T14:47:50;5.15;;;0.77;;
40757;SDS011;26462;47.384;19.218;2023-03-14T14:50:31;7.15;;;1.10;;
40757;SDS011;26462;47.384;19.218;2023-03-14T14:53:01;2.90;;;1.00;;
40757;SDS011;26462;47.384;19.218;2023-03-14T14:55:49;5.25;;;1.08;;
40757;SDS011;26462;47.384;19.218;2023-03-14T14:58:32;2.85;;;0.98;;
40757;SDS011;26462;47.384;19.218;2023-03-14T15:01:20;2.72;;;0.80;;
40757;SDS011;26462;47.384;19.218;2023-03-14T15:03:50;2.58;;;0.70;;
40757;SDS011;26462;47.384;19.218;2023-03-14T15:06:19;5.13;;;1.45;;
40757;SDS011;26462;47.384;19.218;2023-03-14T15:08:48;4.88;;;1.30;;
40757;SDS011;26462;47.384;19.218;2023-03-14T15:11:19;3.05;;;1.17;;
40757;SDS011;26462;47.384;19.218;2023-03-14T15:13:51;3.67;;;1.40;;
40757;SDS011;26462;47.384;19.218;2023-03-14T15:16:23;5.47;;;1.27;;
40757;SDS011;26462;47.384;19.218;2023-03-14T15:18:56;3.35;;;1.25;;
40757;SDS011;26462;47.384;19.218;2023-03-14T15:21:39;3.78;;;1.13;;
40757;SDS011;26462;47.384;19.218;2023-03-14T15:24:08;3.67;;;1.10;;
40757;SDS011;26462;47.384;19.218;2023-03-14T15:26:36;4.93;;;1.42;;
40757;SDS011;26462;47.384;19.218;2023-03-14T15:29:04;4.07;;;1.30;;
40757;SDS011;26462;47.384;19.218;2023-03-14T15:31:34;5.82;;;1.88;;
40757;SDS011;26462;47.384;19.218;2023-03-14T15:34:02;12.27;;;2.47;;
40757;SDS011;26462;47.384;19.218;2023-03-14T15:36:32;7.03;;;1.80;;
40757;SDS011;26462;47.384;19.218;2023-03-14T15:39:02;5.25;;;1.75;;
40757;SDS011;26462;47.384;19.218;2023-03-14T15:41:31;6.28;;;1.70;;
40757;SDS011;26462;47.384;19.218;2023-03-14T15:43:59;5.40;;;1.85;;
40757;SDS011;26462;47.384;19.218;2023-03-14T15:46:26;4.03;;;1.60;;
40757;SDS011;26462;47.384;19.218;2023-03-14T15:48:56;5.30;;;2.33;;
40757;SDS011;26462;47.384;19.218;2023-03-14T15:51:23;6.75;;;4.03;;
40757;SDS011;26462;47.384;19.218;2023-03-14T15:53:50;8.77;;;2.65;;
40757;SDS011;26462;47.384;19.218;2023-03-14T15:56:18;4.93;;;2.50;;
40757;SDS011;26462;47.384;19.218;2023-03-14T15:58:47;5.45;;;2.67;;
40757;SDS011;26462;47.384;19.218;2023-03-14T16:01:14;8.75;;;4.47;;
40757;SDS011;26462;47.384;19.218;2023-03-14T16:03:43;65.07;;;25.98;;
40757;SDS011;26462;47.384;19.218;2023-03-14T16:06:12;53.50;;;21.48;;
40757;SDS011;26462;47.384;19.218;2023-03-14T16:08:40;44.38;;;19.85;;
40757;SDS011;26462;47.384;19.218;2023-03-14T16:11:09;34.83;;;15.77;;
40757;SDS011;26462;47.384;19.218;2023-03-14T16:13:38;7.32;;;3.03;;
40757;SDS011;26462;47.384;19.218;2023-03-14T16:16:05;5.70;;;2.50;;
40757;SDS011;26462;47.384;19.218;2023-03-14T16:18:35;8.52;;;3.72;;
40757;SDS011;26462;47.384;19.218;2023-03-14T16:21:13;9.25;;;4.13;;
40757;SDS011;26462;47.384;19.218;2023-03-14T16:23:42;10.48;;;4.00;;
40757;SDS011;26462;47.384;19.218;2023-03-14T16:26:11;12.30;;;3.75;;
40757;SDS011;26462;47.384;19.218;2023-03-14T16:28:43;6.95;;;1.85;;